sensor_id;sensor_type;location;lat;lon;timestamp;temperature;humidity
2893;DHT22;1456;51.840;12.184;2024-02-21T00:01:05;8.40;99.90
2893;DHT22;1456;51.840;12.184;2024-02-21T00:03:31;8.40;99.90
2893;DHT22;1456;51.840;12.184;2024-02-21T00:05:57;8.50;99.90
2893;DHT22;1456;51.840;12.184;2024-02-21T00:08:23;8.60;99.90
2893;DHT22;1456;51.840;12.184;2024-02-21T00:10:48;8.60;99.90
2893;DHT22;1456;51.840;12.184;2024-02-21T00:13:14;8.60;99.90
2893;DHT22;1456;51.840;12.184;2024-02-21T00:15:40;8.70;99.90
2893;DHT22;1456;51.840;12.184;2024-02-21T00:18:06;8.50;99.90
2893;DHT22;1456;51.840;12.184;2024-02-21T00:20:31;8.50;99.90
2893;DHT22;1456;51.840;12.184;2024-02-21T00:22:57;8.60;99.90
2893;DHT22;1456;51.840;12.184;2024-02-21T00:25:23;8.50;99.90
2893;DHT22;1456;51.840;12.184;2024-02-21T00:27:48;8.60;99.90
2893;DHT22;1456;51.840;12.184;2024-02-21T00:30:14;8.50;99.90
2893;DHT22;1456;51.840;12.184;2024-02-21T00:32:39;8.30;99.90
2893;DHT22;1456;51.840;12.184;2024-02-21T00:35:05;8.40;99.90
2893;DHT22;1456;51.840;12.184;2024-02-21T00:37:31;8.30;99.90
2893;DHT22;1456;51.840;12.184;2024-02-21T00:39:57;8.30;99.90
2893;DHT22;1456;51.840;12.184;2024-02-21T00:42:23;8.40;99.90
2893;DHT22;1456;51.840;12.184;2024-02-21T00:44:48;8.30;99.90
2893;DHT22;1456;51.840;12.184;2024-02-21T00:47:14;8.40;99.90
2893;DHT22;1456;51.840;12.184;2024-02-21T00:49:39;8.40;99.90
2893;DHT22;1456;51.840;12.184;2024-02-21T00:52:05;8.50;99.90
2893;DHT22;1456;51.840;12.184;2024-02-21T00:54:32;8.50;99.90
2893;DHT22;1456;51.840;12.184;2024-02-21T00:56:57;8.60;99.90
2893;DHT22;1456;51.840;12.184;2024-02-21T00:59:23;8.60;99.90
2893;DHT22;1456;51.840;12.184;2024-02-21T01:01:48;8.60;99.90
2893;DHT22;1456;51.840;12.184;2024-02-21T01:04:14;8.70;99.90
2893;DHT22;1456;51.840;12.184;2024-02-21T01:06:40;8.50;99.90
2893;DHT22;1456;51.840;12.184;2024-02-21T01:09:08;8.50;99.90
2893;DHT22;1456;51.840;12.184;2024-02-21T01:11:33;8.50;99.90
2893;DHT22;1456;51.840;12.184;2024-02-21T01:13:59;8.50;99.90
2893;DHT22;1456;51.840;12.184;2024-02-21T01:16:26;8.50;99.90
2893;DHT22;1456;51.840;12.184;2024-02-21T01:18:51;8.50;99.90
2893;DHT22;1456;51.840;12.184;2024-02-21T01:21:17;8.50;99.90
2893;DHT22;1456;51.840;12.184;2024-02-21T01:23:43;8.60;99.90
2893;DHT22;1456;51.840;12.184;2024-02-21T01:26:08;8.50;99.90
2893;DHT22;1456;51.840;12.184;2024-02-21T01:28:35;8.50;99.90
2893;DHT22;1456;51.840;12.184;2024-02-21T01:31:01;8.50;99.90
2893;DHT22;1456;51.840;12.184;2024-02-21T01:33:26;8.50;99.90
2893;DHT22;1456;51.840;12.184;2024-02-21T01:35:52;8.60;99.90
2893;DHT22;1456;51.840;12.184;2024-02-21T01:38:20;8.70;99.90
2893;DHT22;1456;51.840;12.184;2024-02-21T01:40:46;8.70;99.90
2893;DHT22;1456;51.840;12.184;2024-02-21T01:43:16;8.60;99.90
2893;DHT22;1456;51.840;12.184;2024-02-21T01:45:43;8.60;99.90
2893;DHT22;1456;51.840;12.184;2024-02-21T01:48:09;8.60;99.90
2893;DHT22;1456;51.840;12.184;2024-02-21T01:50:35;8.50;99.90
2893;DHT22;1456;51.840;12.184;2024-02-21T01:53:02;8.50;99.90
2893;DHT22;1456;51.840;12.184;2024-02-21T01:55:28;8.40;99.90
2893;DHT22;1456;51.840;12.184;2024-02-21T01:57:53;8.30;99.90
2893;DHT22;1456;51.840;12.184;2024-02-21T02:00:19;8.20;99.90
2893;DHT22;1456;51.840;12.184;2024-02-21T02:02:46;8.10;99.90
2893;DHT22;1456;51.840;12.184;2024-02-21T02:05:11;8.10;99.90
2893;DHT22;1456;51.840;12.184;2024-02-21T02:07:37;8.00;99.90
2893;DHT22;1456;51.840;12.184;2024-02-21T02:10:03;8.00;99.90
2893;DHT22;1456;51.840;12.184;2024-02-21T02:12:29;7.90;99.90
2893;DHT22;1456;51.840;12.184;2024-02-21T02:15:07;7.90;99.90
2893;DHT22;1456;51.840;12.184;2024-02-21T02:17:33;7.90;99.90
2893;DHT22;1456;51.840;12.184;2024-02-21T02:19:58;7.80;99.90
2893;DHT22;1456;51.840;12.184;2024-02-21T02:22:28;7.70;99.90
2893;DHT22;1456;51.840;12.184;2024-02-21T02:24:55;8.00;99.90
2893;DHT22;1456;51.840;12.184;2024-02-21T02:27:20;7.90;99.90
2893;DHT22;1456;51.840;12.184;2024-02-21T02:29:48;7.80;99.90
2893;DHT22;1456;51.840;12.184;2024-02-21T02:32:14;7.80;99.90
2893;DHT22;1456;51.840;12.184;2024-02-21T02:34:40;7.80;99.90
2893;DHT22;1456;51.840;12.184;2024-02-21T02:37:06;7.80;99.90
2893;DHT22;1456;51.840;12.184;2024-02-21T02:39:31;7.90;99.90
2893;DHT22;1456;51.840;12.184;2024-02-21T02:41:57;7.90;99.90
2893;DHT22;1456;51.840;12.184;2024-02-21T02:44:22;7.90;99.90
2893;DHT22;1456;51.840;12.184;2024-02-21T02:46:48;7.90;99.90
2893;DHT22;1456;51.840;12.184;2024-02-21T02:49:14;7.90;99.90
2893;DHT22;1456;51.840;12.184;2024-02-21T02:51:43;7.90;99.90
2893;DHT22;1456;51.840;12.184;2024-02-21T02:54:09;7.80;99.90
2893;DHT22;1456;51.840;12.184;2024-02-21T02:56:35;7.90;99.90
2893;DHT22;1456;51.840;12.184;2024-02-21T02:59:00;7.70;99.90
2893;DHT22;1456;51.840;12.184;2024-02-21T03:01:26;7.70;99.90
2893;DHT22;1456;51.840;12.184;2024-02-21T03:03:52;7.80;99.90
2893;DHT22;1456;51.840;12.184;2024-02-21T03:06:19;7.80;99.90
2893;DHT22;1456;51.840;12.184;2024-02-21T03:08:44;7.60;99.90
2893;DHT22;1456;51.840;12.184;2024-02-21T03:11:10;7.60;99.90
2893;DHT22;1456;51.840;12.184;2024-02-21T03:13:36;7.60;99.90
2893;DHT22;1456;51.840;12.184;2024-02-21T03:16:02;7.60;99.90
2893;DHT22;1456;51.840;12.184;2024-02-21T03:18:28;7.60;99.90
2893;DHT22;1456;51.840;12.184;2024-02-21T03:20:53;7.60;99.90
2893;DHT22;1456;51.840;12.184;2024-02-21T03:23:19;7.60;99.90
2893;DHT22;1456;51.840;12.184;2024-02-21T03:25:45;7.70;99.90
2893;DHT22;1456;51.840;12.184;2024-02-21T03:28:11;7.70;99.90
2893;DHT22;1456;51.840;12.184;2024-02-21T03:30:36;7.70;99.90
2893;DHT22;1456;51.840;12.184;2024-02-21T03:33:02;7.90;99.90
2893;DHT22;1456;51.840;12.184;2024-02-21T03:35:28;7.80;99.90
2893;DHT22;1456;51.840;12.184;2024-02-21T03:37:54;7.90;99.90
2893;DHT22;1456;51.840;12.184;2024-02-21T03:40:20;7.80;99.90
2893;DHT22;1456;51.840;12.184;2024-02-21T03:42:45;7.90;99.90
2893;DHT22;1456;51.840;12.184;2024-02-21T03:45:11;7.90;99.90
2893;DHT22;1456;51.840;12.184;2024-02-21T03:47:36;8.00;99.90
2893;DHT22;1456;51.840;12.184;2024-02-21T03:50:02;8.00;99.90
2893;DHT22;1456;51.840;12.184;2024-02-21T03:52:28;8.00;99.90
2893;DHT22;1456;51.840;12.184;2024-02-21T03:54:53;7.90;99.90
2893;DHT22;1456;51.840;12.184;2024-02-21T03:57:20;7.90;99.90
2893;DHT22;1456;51.840;12.184;2024-02-21T03:59:49;8.00;99.90
2893;DHT22;1456;51.840;12.184;2024-02-21T04:02:15;7.90;99.90
2893;DHT22;1456;51.840;12.184;2024-02-21T04:04:44;7.90;99.90
2893;DHT22;1456;51.840;12.184;2024-02-21T04:07:16;7.80;99.90
2893;DHT22;1456;51.840;12.184;2024-02-21T04:09:42;7.80;99.90
2893;DHT22;1456;51.840;12.184;2024-02-21T04:12:08;7.70;99.90
2893;DHT22;1456;51.840;12.184;2024-02-21T04:14:33;7.70;99.90
2893;DHT22;1456;51.840;12.184;2024-02-21T04:17:00;7.60;99.90
2893;DHT22;1456;51.840;12.184;2024-02-21T04:19:25;7.60;99.90
2893;DHT22;1456;51.840;12.184;2024-02-21T04:21:51;7.50;99.90
2893;DHT22;1456;51.840;12.184;2024-02-21T04:24:17;7.60;99.90
2893;DHT22;1456;51.840;12.184;2024-02-21T04:26:42;7.50;99.90
2893;DHT22;1456;51.840;12.184;2024-02-21T04:29:09;7.50;99.90
2893;DHT22;1456;51.840;12.184;2024-02-21T04:31:34;7.40;99.90
2893;DHT22;1456;51.840;12.184;2024-02-21T04:34:00;7.40;99.90
2893;DHT22;1456;51.840;12.184;2024-02-21T04:36:26;7.40;99.90
2893;DHT22;1456;51.840;12.184;2024-02-21T04:38:51;7.40;99.90
2893;DHT22;1456;51.840;12.184;2024-02-21T04:41:17;7.20;99.90
2893;DHT22;1456;51.840;12.184;2024-02-21T04:43:42;7.40;99.90
2893;DHT22;1456;51.840;12.184;2024-02-21T04:46:08;7.20;99.90
2893;DHT22;1456;51.840;12.184;2024-02-21T04:48:35;7.10;99.90
2893;DHT22;1456;51.840;12.184;2024-02-21T04:51:00;7.10;99.90
2893;DHT22;1456;51.840;12.184;2024-02-21T04:53:26;7.10;99.90
2893;DHT22;1456;51.840;12.184;2024-02-21T04:55:52;7.10;99.90
2893;DHT22;1456;51.840;12.184;2024-02-21T04:58:17;7.10;99.90
2893;DHT22;1456;51.840;12.184;2024-02-21T05:00:43;7.00;99.90
2893;DHT22;1456;51.840;12.184;2024-02-21T05:03:08;7.10;99.90
2893;DHT22;1456;51.840;12.184;2024-02-21T05:05:34;7.00;99.90
2893;DHT22;1456;51.840;12.184;2024-02-21T05:07:59;7.00;99.90
2893;DHT22;1456;51.840;12.184;2024-02-21T05:10:25;6.90;99.90
2893;DHT22;1456;51.840;12.184;2024-02-21T05:12:51;7.00;99.90
2893;DHT22;1456;51.840;12.184;2024-02-21T05:15:16;7.00;99.90
2893;DHT22;1456;51.840;12.184;2024-02-21T05:17:42;7.00;99.90
2893;DHT22;1456;51.840;12.184;2024-02-21T05:20:09;7.10;99.90
2893;DHT22;1456;51.840;12.184;2024-02-21T05:22:34;7.10;99.90
2893;DHT22;1456;51.840;12.184;2024-02-21T05:25:00;7.20;99.90
2893;DHT22;1456;51.840;12.184;2024-02-21T05:27:26;7.20;99.90
2893;DHT22;1456;51.840;12.184;2024-02-21T05:29:53;7.30;99.90
2893;DHT22;1456;51.840;12.184;2024-02-21T05:32:18;7.20;99.90
2893;DHT22;1456;51.840;12.184;2024-02-21T05:34:44;7.20;99.90
2893;DHT22;1456;51.840;12.184;2024-02-21T05:37:09;7.20;99.90
2893;DHT22;1456;51.840;12.184;2024-02-21T05:39:35;7.40;99.90
2893;DHT22;1456;51.840;12.184;2024-02-21T05:42:01;7.40;99.90
2893;DHT22;1456;51.840;12.184;2024-02-21T05:44:26;7.40;99.90
2893;DHT22;1456;51.840;12.184;2024-02-21T05:46:52;7.40;99.90
2893;DHT22;1456;51.840;12.184;2024-02-21T05:49:18;7.50;99.90
2893;DHT22;1456;51.840;12.184;2024-02-21T05:51:43;7.60;99.90
2893;DHT22;1456;51.840;12.184;2024-02-21T05:54:09;7.60;99.90
2893;DHT22;1456;51.840;12.184;2024-02-21T05:56:35;7.70;99.90
2893;DHT22;1456;51.840;12.184;2024-02-21T05:59:00;7.60;99.90
2893;DHT22;1456;51.840;12.184;2024-02-21T06:01:26;7.70;99.90
2893;DHT22;1456;51.840;12.184;2024-02-21T06:03:51;7.70;99.90
2893;DHT22;1456;51.840;12.184;2024-02-21T06:06:17;7.70;99.90
2893;DHT22;1456;51.840;12.184;2024-02-21T06:08:43;7.80;99.90
2893;DHT22;1456;51.840;12.184;2024-02-21T06:11:08;7.80;99.90
2893;DHT22;1456;51.840;12.184;2024-02-21T06:13:38;7.90;99.90
2893;DHT22;1456;51.840;12.184;2024-02-21T06:16:06;7.70;99.90
2893;DHT22;1456;51.840;12.184;2024-02-21T06:18:32;7.70;99.90
2893;DHT22;1456;51.840;12.184;2024-02-21T06:20:57;7.80;99.90
2893;DHT22;1456;51.840;12.184;2024-02-21T06:23:23;7.70;99.90
2893;DHT22;1456;51.840;12.184;2024-02-21T06:25:48;7.80;99.90
2893;DHT22;1456;51.840;12.184;2024-02-21T06:28:14;7.70;99.90
2893;DHT22;1456;51.840;12.184;2024-02-21T06:30:43;7.70;99.90
2893;DHT22;1456;51.840;12.184;2024-02-21T06:33:08;7.70;99.90
2893;DHT22;1456;51.840;12.184;2024-02-21T06:35:34;7.90;99.90
2893;DHT22;1456;51.840;12.184;2024-02-21T06:38:00;7.80;99.90
2893;DHT22;1456;51.840;12.184;2024-02-21T06:40:25;7.90;99.90
2893;DHT22;1456;51.840;12.184;2024-02-21T06:42:56;7.90;99.90
2893;DHT22;1456;51.840;12.184;2024-02-21T06:45:22;7.80;99.90
2893;DHT22;1456;51.840;12.184;2024-02-21T06:47:47;7.80;99.90
2893;DHT22;1456;51.840;12.184;2024-02-21T06:50:13;7.80;99.90
2893;DHT22;1456;51.840;12.184;2024-02-21T06:52:38;7.80;99.90
2893;DHT22;1456;51.840;12.184;2024-02-21T06:55:04;7.80;99.90
2893;DHT22;1456;51.840;12.184;2024-02-21T06:57:30;7.90;99.90
2893;DHT22;1456;51.840;12.184;2024-02-21T06:59:56;8.00;99.90
2893;DHT22;1456;51.840;12.184;2024-02-21T07:02:21;8.00;99.90
2893;DHT22;1456;51.840;12.184;2024-02-21T07:04:47;8.00;99.90
2893;DHT22;1456;51.840;12.184;2024-02-21T07:07:12;8.10;99.90
2893;DHT22;1456;51.840;12.184;2024-02-21T07:09:39;8.20;99.90
2893;DHT22;1456;51.840;12.184;2024-02-21T07:12:04;8.30;99.90
2893;DHT22;1456;51.840;12.184;2024-02-21T07:14:32;8.30;99.90
2893;DHT22;1456;51.840;12.184;2024-02-21T07:16:58;8.30;99.90
2893;DHT22;1456;51.840;12.184;2024-02-21T07:19:23;8.30;99.90
2893;DHT22;1456;51.840;12.184;2024-02-21T07:21:49;8.20;99.90
2893;DHT22;1456;51.840;12.184;2024-02-21T07:24:15;8.20;99.90
2893;DHT22;1456;51.840;12.184;2024-02-21T07:26:44;8.20;99.90
2893;DHT22;1456;51.840;12.184;2024-02-21T07:29:10;8.20;99.90
2893;DHT22;1456;51.840;12.184;2024-02-21T07:31:41;8.20;99.90
2893;DHT22;1456;51.840;12.184;2024-02-21T07:34:06;8.30;99.90
2893;DHT22;1456;51.840;12.184;2024-02-21T07:36:32;8.30;99.90
2893;DHT22;1456;51.840;12.184;2024-02-21T07:38:58;8.50;99.90
2893;DHT22;1456;51.840;12.184;2024-02-21T07:41:25;8.40;99.90
2893;DHT22;1456;51.840;12.184;2024-02-21T07:43:51;8.40;99.90
2893;DHT22;1456;51.840;12.184;2024-02-21T07:46:17;8.40;99.90
2893;DHT22;1456;51.840;12.184;2024-02-21T07:48:45;8.40;99.90
2893;DHT22;1456;51.840;12.184;2024-02-21T07:51:11;8.60;99.90
2893;DHT22;1456;51.840;12.184;2024-02-21T07:53:39;8.50;99.90
2893;DHT22;1456;51.840;12.184;2024-02-21T07:56:07;8.60;99.90
2893;DHT22;1456;51.840;12.184;2024-02-21T07:58:33;8.70;99.90
2893;DHT22;1456;51.840;12.184;2024-02-21T08:00:59;8.60;99.90
2893;DHT22;1456;51.840;12.184;2024-02-21T08:03:24;8.80;99.90
2893;DHT22;1456;51.840;12.184;2024-02-21T08:05:51;8.90;99.90
2893;DHT22;1456;51.840;12.184;2024-02-21T08:08:16;8.90;99.90
2893;DHT22;1456;51.840;12.184;2024-02-21T08:10:45;9.10;99.90
2893;DHT22;1456;51.840;12.184;2024-02-21T08:13:11;9.20;99.90
2893;DHT22;1456;51.840;12.184;2024-02-21T08:15:36;9.30;99.90
2893;DHT22;1456;51.840;12.184;2024-02-21T08:18:05;9.40;99.90
2893;DHT22;1456;51.840;12.184;2024-02-21T08:20:31;9.50;99.90
2893;DHT22;1456;51.840;12.184;2024-02-21T08:22:56;9.50;99.90
2893;DHT22;1456;51.840;12.184;2024-02-21T08:25:22;9.50;99.90
2893;DHT22;1456;51.840;12.184;2024-02-21T08:27:47;9.50;99.90
2893;DHT22;1456;51.840;12.184;2024-02-21T08:30:13;9.50;99.90
2893;DHT22;1456;51.840;12.184;2024-02-21T08:32:39;9.40;99.90
2893;DHT22;1456;51.840;12.184;2024-02-21T08:35:05;9.60;99.90
2893;DHT22;1456;51.840;12.184;2024-02-21T08:37:31;9.70;99.90
2893;DHT22;1456;51.840;12.184;2024-02-21T08:39:57;9.90;99.90
2893;DHT22;1456;51.840;12.184;2024-02-21T08:42:23;10.20;99.90
2893;DHT22;1456;51.840;12.184;2024-02-21T08:44:48;10.30;99.90
2893;DHT22;1456;51.840;12.184;2024-02-21T08:47:14;10.50;99.90
2893;DHT22;1456;51.840;12.184;2024-02-21T08:49:40;10.70;99.90
2893;DHT22;1456;51.840;12.184;2024-02-21T08:52:06;10.80;99.90
2893;DHT22;1456;51.840;12.184;2024-02-21T08:54:32;10.70;99.90
2893;DHT22;1456;51.840;12.184;2024-02-21T08:57:00;10.80;99.90
2893;DHT22;1456;51.840;12.184;2024-02-21T08:59:26;10.70;99.90
2893;DHT22;1456;51.840;12.184;2024-02-21T09:01:52;10.60;99.90
2893;DHT22;1456;51.840;12.184;2024-02-21T09:04:20;10.80;99.90
2893;DHT22;1456;51.840;12.184;2024-02-21T09:06:46;10.90;99.90
2893;DHT22;1456;51.840;12.184;2024-02-21T09:09:12;11.10;99.90
2893;DHT22;1456;51.840;12.184;2024-02-21T09:11:43;11.20;99.90
2893;DHT22;1456;51.840;12.184;2024-02-21T09:14:09;11.40;99.90
2893;DHT22;1456;51.840;12.184;2024-02-21T09:16:35;11.60;99.90
2893;DHT22;1456;51.840;12.184;2024-02-21T09:19:05;11.70;99.90
2893;DHT22;1456;51.840;12.184;2024-02-21T09:21:31;12.00;99.90
2893;DHT22;1456;51.840;12.184;2024-02-21T09:24:00;11.80;99.90
2893;DHT22;1456;51.840;12.184;2024-02-21T09:26:29;11.70;99.90
2893;DHT22;1456;51.840;12.184;2024-02-21T09:28:57;11.70;99.90
2893;DHT22;1456;51.840;12.184;2024-02-21T09:31:25;11.80;99.90
2893;DHT22;1456;51.840;12.184;2024-02-21T09:33:51;11.90;99.90
2893;DHT22;1456;51.840;12.184;2024-02-21T09:36:17;11.80;99.90
2893;DHT22;1456;51.840;12.184;2024-02-21T09:38:42;11.70;99.90
2893;DHT22;1456;51.840;12.184;2024-02-21T09:41:18;11.80;99.90
2893;DHT22;1456;51.840;12.184;2024-02-21T09:43:47;11.80;99.90
2893;DHT22;1456;51.840;12.184;2024-02-21T09:46:19;11.90;99.90
2893;DHT22;1456;51.840;12.184;2024-02-21T09:51:35;12.80;99.90
2893;DHT22;1456;51.840;12.184;2024-02-21T09:54:03;13.00;99.90
2893;DHT22;1456;51.840;12.184;2024-02-21T09:56:29;12.80;99.90
2893;DHT22;1456;51.840;12.184;2024-02-21T09:58:55;12.90;99.90
2893;DHT22;1456;51.840;12.184;2024-02-21T10:01:21;12.90;99.90
2893;DHT22;1456;51.840;12.184;2024-02-21T10:03:47;13.00;99.90
2893;DHT22;1456;51.840;12.184;2024-02-21T10:06:13;13.20;99.90
2893;DHT22;1456;51.840;12.184;2024-02-21T10:08:42;13.10;99.90
2893;DHT22;1456;51.840;12.184;2024-02-21T10:11:08;13.00;99.90
2893;DHT22;1456;51.840;12.184;2024-02-21T10:13:35;13.10;99.90
2893;DHT22;1456;51.840;12.184;2024-02-21T10:16:05;13.20;99.90
2893;DHT22;1456;51.840;12.184;2024-02-21T10:18:31;13.30;99.90
2893;DHT22;1456;51.840;12.184;2024-02-21T10:21:06;13.50;99.90
2893;DHT22;1456;51.840;12.184;2024-02-21T10:23:49;13.90;99.90
2893;DHT22;1456;51.840;12.184;2024-02-21T10:26:17;14.00;99.90
2893;DHT22;1456;51.840;12.184;2024-02-21T10:28:43;13.70;99.90
2893;DHT22;1456;51.840;12.184;2024-02-21T10:31:11;13.30;99.90
2893;DHT22;1456;51.840;12.184;2024-02-21T10:34:02;12.80;99.90
2893;DHT22;1456;51.840;12.184;2024-02-21T10:36:28;13.00;99.90
2893;DHT22;1456;51.840;12.184;2024-02-21T10:38:54;13.00;99.90
2893;DHT22;1456;51.840;12.184;2024-02-21T10:41:21;13.00;99.90
2893;DHT22;1456;51.840;12.184;2024-02-21T10:43:52;13.00;99.90
2893;DHT22;1456;51.840;12.184;2024-02-21T10:46:20;13.30;99.90
2893;DHT22;1456;51.840;12.184;2024-02-21T10:48:47;13.70;99.90
2893;DHT22;1456;51.840;12.184;2024-02-21T10:51:18;14.20;99.90
2893;DHT22;1456;51.840;12.184;2024-02-21T10:56:41;14.40;99.30
2893;DHT22;1456;51.840;12.184;2024-02-21T10:59:08;14.20;99.20
2893;DHT22;1456;51.840;12.184;2024-02-21T11:01:34;14.00;99.20
2893;DHT22;1456;51.840;12.184;2024-02-21T11:04:05;14.20;99.50
2893;DHT22;1456;51.840;12.184;2024-02-21T11:06:33;14.30;99.10
2893;DHT22;1456;51.840;12.184;2024-02-21T11:09:07;14.30;98.50
2893;DHT22;1456;51.840;12.184;2024-02-21T11:11:39;14.40;99.30
2893;DHT22;1456;51.840;12.184;2024-02-21T11:16:41;15.30;97.70
2893;DHT22;1456;51.840;12.184;2024-02-21T11:19:08;15.60;98.10
2893;DHT22;1456;51.840;12.184;2024-02-21T11:21:35;15.60;97.50
2893;DHT22;1456;51.840;12.184;2024-02-21T11:24:02;15.30;97.50
2893;DHT22;1456;51.840;12.184;2024-02-21T11:26:29;14.70;97.20
2893;DHT22;1456;51.840;12.184;2024-02-21T11:29:01;14.40;97.40
2893;DHT22;1456;51.840;12.184;2024-02-21T11:31:41;14.50;98.40
2893;DHT22;1456;51.840;12.184;2024-02-21T11:34:11;14.50;97.00
2893;DHT22;1456;51.840;12.184;2024-02-21T11:36:49;14.50;97.50
2893;DHT22;1456;51.840;12.184;2024-02-21T11:39:23;14.60;97.10
2893;DHT22;1456;51.840;12.184;2024-02-21T11:42:06;14.60;97.50
2893;DHT22;1456;51.840;12.184;2024-02-21T11:44:38;14.90;96.40
2893;DHT22;1456;51.840;12.184;2024-02-21T11:47:08;15.30;97.50
2893;DHT22;1456;51.840;12.184;2024-02-21T11:49:38;15.90;96.80
2893;DHT22;1456;51.840;12.184;2024-02-21T11:52:07;16.10;95.40
2893;DHT22;1456;51.840;12.184;2024-02-21T11:54:33;16.20;95.50
2893;DHT22;1456;51.840;12.184;2024-02-21T11:57:00;16.40;95.50
2893;DHT22;1456;51.840;12.184;2024-02-21T11:59:29;16.40;95.10
2893;DHT22;1456;51.840;12.184;2024-02-21T12:01:55;16.30;95.70
2893;DHT22;1456;51.840;12.184;2024-02-21T12:04:22;16.30;95.40
2893;DHT22;1456;51.840;12.184;2024-02-21T12:06:49;16.00;95.50
2893;DHT22;1456;51.840;12.184;2024-02-21T12:09:18;15.50;95.70
2893;DHT22;1456;51.840;12.184;2024-02-21T12:11:44;15.20;95.70
2893;DHT22;1456;51.840;12.184;2024-02-21T12:14:11;15.10;95.50
2893;DHT22;1456;51.840;12.184;2024-02-21T12:16:41;15.10;95.90
2893;DHT22;1456;51.840;12.184;2024-02-21T12:19:07;15.30;95.10
2893;DHT22;1456;51.840;12.184;2024-02-21T12:21:34;15.30;95.90
2893;DHT22;1456;51.840;12.184;2024-02-21T12:26:38;15.90;95.60
2893;DHT22;1456;51.840;12.184;2024-02-21T12:29:04;15.70;94.50
2893;DHT22;1456;51.840;12.184;2024-02-21T12:31:29;15.70;94.70
2893;DHT22;1456;51.840;12.184;2024-02-21T12:33:55;15.40;94.50
2893;DHT22;1456;51.840;12.184;2024-02-21T12:36:21;15.30;94.80
2893;DHT22;1456;51.840;12.184;2024-02-21T12:38:47;15.70;94.90
2893;DHT22;1456;51.840;12.184;2024-02-21T12:41:14;16.40;95.30
2893;DHT22;1456;51.840;12.184;2024-02-21T12:43:40;16.60;92.90
2893;DHT22;1456;51.840;12.184;2024-02-21T12:46:06;16.80;93.40
2893;DHT22;1456;51.840;12.184;2024-02-21T12:48:33;16.80;93.60
2893;DHT22;1456;51.840;12.184;2024-02-21T12:50:59;17.00;93.00
2893;DHT22;1456;51.840;12.184;2024-02-21T12:53:25;16.80;93.20
2893;DHT22;1456;51.840;12.184;2024-02-21T12:55:51;17.30;93.10
2893;DHT22;1456;51.840;12.184;2024-02-21T12:58:16;17.60;92.50
2893;DHT22;1456;51.840;12.184;2024-02-21T13:00:43;18.50;92.10
2893;DHT22;1456;51.840;12.184;2024-02-21T13:03:09;18.40;91.60
2893;DHT22;1456;51.840;12.184;2024-02-21T13:05:40;18.40;92.20
2893;DHT22;1456;51.840;12.184;2024-02-21T13:08:06;18.10;91.50
2893;DHT22;1456;51.840;12.184;2024-02-21T13:10:33;17.70;92.60
2893;DHT22;1456;51.840;12.184;2024-02-21T13:13:01;17.50;92.30
2893;DHT22;1456;51.840;12.184;2024-02-21T13:15:27;17.50;92.70
2893;DHT22;1456;51.840;12.184;2024-02-21T13:17:55;17.50;93.70
2893;DHT22;1456;51.840;12.184;2024-02-21T13:20:21;17.40;93.30
2893;DHT22;1456;51.840;12.184;2024-02-21T13:22:46;17.00;93.50
2893;DHT22;1456;51.840;12.184;2024-02-21T13:25:12;16.50;94.00
2893;DHT22;1456;51.840;12.184;2024-02-21T13:27:43;16.20;93.90
2893;DHT22;1456;51.840;12.184;2024-02-21T13:30:10;16.10;93.80
2893;DHT22;1456;51.840;12.184;2024-02-21T13:32:36;15.70;94.10
2893;DHT22;1456;51.840;12.184;2024-02-21T13:35:01;15.20;94.80
2893;DHT22;1456;51.840;12.184;2024-02-21T13:37:28;15.50;95.50
2893;DHT22;1456;51.840;12.184;2024-02-21T13:39:54;15.50;95.10
2893;DHT22;1456;51.840;12.184;2024-02-21T13:42:20;15.60;94.90
2893;DHT22;1456;51.840;12.184;2024-02-21T13:44:46;15.60;94.80
2893;DHT22;1456;51.840;12.184;2024-02-21T13:47:15;15.40;94.70
2893;DHT22;1456;51.840;12.184;2024-02-21T13:49:41;14.50;94.80
2893;DHT22;1456;51.840;12.184;2024-02-21T13:52:07;13.80;96.40
2893;DHT22;1456;51.840;12.184;2024-02-21T13:54:34;13.60;96.70
2893;DHT22;1456;51.840;12.184;2024-02-21T13:57:00;13.60;96.90
2893;DHT22;1456;51.840;12.184;2024-02-21T13:59:27;13.60;96.80
2893;DHT22;1456;51.840;12.184;2024-02-21T14:01:53;13.80;97.20
2893;DHT22;1456;51.840;12.184;2024-02-21T14:04:19;14.10;96.80
2893;DHT22;1456;51.840;12.184;2024-02-21T14:06:45;14.40;96.90
2893;DHT22;1456;51.840;12.184;2024-02-21T14:09:12;14.60;96.50
2893;DHT22;1456;51.840;12.184;2024-02-21T14:11:38;14.50;96.50
2893;DHT22;1456;51.840;12.184;2024-02-21T14:14:05;14.80;96.90
2893;DHT22;1456;51.840;12.184;2024-02-21T14:16:31;15.00;96.60
2893;DHT22;1456;51.840;12.184;2024-02-21T14:18:57;14.90;95.90
2893;DHT22;1456;51.840;12.184;2024-02-21T14:21:22;14.80;96.10
2893;DHT22;1456;51.840;12.184;2024-02-21T14:23:48;14.90;95.90
2893;DHT22;1456;51.840;12.184;2024-02-21T14:26:14;14.80;95.90
2893;DHT22;1456;51.840;12.184;2024-02-21T14:28:40;14.60;96.40
2893;DHT22;1456;51.840;12.184;2024-02-21T14:31:07;14.70;96.60
2893;DHT22;1456;51.840;12.184;2024-02-21T14:33:37;14.60;96.60
2893;DHT22;1456;51.840;12.184;2024-02-21T14:36:03;13.90;96.70
2893;DHT22;1456;51.840;12.184;2024-02-21T14:38:29;13.30;97.00
2893;DHT22;1456;51.840;12.184;2024-02-21T14:40:55;12.90;97.40
2893;DHT22;1456;51.840;12.184;2024-02-21T14:43:21;12.70;97.90
2893;DHT22;1456;51.840;12.184;2024-02-21T14:45:47;12.50;97.90
2893;DHT22;1456;51.840;12.184;2024-02-21T14:48:13;12.30;98.40
2893;DHT22;1456;51.840;12.184;2024-02-21T14:50:39;12.30;98.70
2893;DHT22;1456;51.840;12.184;2024-02-21T14:53:06;12.30;98.80
2893;DHT22;1456;51.840;12.184;2024-02-21T14:55:33;11.90;98.60
2893;DHT22;1456;51.840;12.184;2024-02-21T14:57:59;11.70;99.00
2893;DHT22;1456;51.840;12.184;2024-02-21T15:00:26;11.60;99.30
2893;DHT22;1456;51.840;12.184;2024-02-21T15:02:58;11.60;99.80
2893;DHT22;1456;51.840;12.184;2024-02-21T15:05:30;11.60;99.90
2893;DHT22;1456;51.840;12.184;2024-02-21T15:07:56;11.50;99.90
2893;DHT22;1456;51.840;12.184;2024-02-21T15:10:23;11.30;99.90
2893;DHT22;1456;51.840;12.184;2024-02-21T15:12:49;11.30;99.90
2893;DHT22;1456;51.840;12.184;2024-02-21T15:15:14;11.10;99.90
2893;DHT22;1456;51.840;12.184;2024-02-21T15:17:41;11.00;99.90
2893;DHT22;1456;51.840;12.184;2024-02-21T15:20:06;11.00;99.90
2893;DHT22;1456;51.840;12.184;2024-02-21T15:22:36;11.10;99.90
2893;DHT22;1456;51.840;12.184;2024-02-21T15:25:02;11.00;99.90
2893;DHT22;1456;51.840;12.184;2024-02-21T15:27:31;11.00;99.90
2893;DHT22;1456;51.840;12.184;2024-02-21T15:29:57;11.00;99.90
2893;DHT22;1456;51.840;12.184;2024-02-21T15:32:23;10.90;99.90
2893;DHT22;1456;51.840;12.184;2024-02-21T15:34:52;10.90;99.90
2893;DHT22;1456;51.840;12.184;2024-02-21T15:37:20;10.80;99.90
2893;DHT22;1456;51.840;12.184;2024-02-21T15:39:56;10.80;99.90
2893;DHT22;1456;51.840;12.184;2024-02-21T15:42:28;10.70;99.90
2893;DHT22;1456;51.840;12.184;2024-02-21T15:44:54;10.60;99.90
2893;DHT22;1456;51.840;12.184;2024-02-21T15:47:25;10.50;99.90
2893;DHT22;1456;51.840;12.184;2024-02-21T15:50:01;10.60;99.90
2893;DHT22;1456;51.840;12.184;2024-02-21T15:52:33;10.60;99.90
2893;DHT22;1456;51.840;12.184;2024-02-21T15:55:01;10.60;99.90
2893;DHT22;1456;51.840;12.184;2024-02-21T15:57:29;10.50;99.90
2893;DHT22;1456;51.840;12.184;2024-02-21T16:00:00;10.30;99.90
2893;DHT22;1456;51.840;12.184;2024-02-21T16:02:29;10.50;99.90